sensor_id;sensor_type;location;lat;lon;timestamp;temperature;humidity
72650;SHT31;61467;50.674;4.618;2023-05-07T00:01:56;16.34;69.76
72650;SHT31;61467;50.674;4.618;2023-05-07T00:07:52;16.35;69.40
72650;SHT31;61467;50.674;4.618;2023-05-07T00:10:52;16.34;69.70
72650;SHT31;61467;50.674;4.618;2023-05-07T00:13:56;16.34;70.05
72650;SHT31;61467;50.674;4.618;2023-05-07T00:16:58;16.24;70.09
72650;SHT31;61467;50.674;4.618;2023-05-07T00:25:50;16.49;69.70
72650;SHT31;61467;50.674;4.618;2023-05-07T00:29:00;16.42;69.64
72650;SHT31;61467;50.674;4.618;2023-05-07T00:31:57;16.41;69.32
72650;SHT31;61467;50.674;4.618;2023-05-07T00:34:55;16.40;69.12
72650;SHT31;61467;50.674;4.618;2023-05-07T00:37:59;16.40;69.23
72650;SHT31;61467;50.674;4.618;2023-05-07T00:41:12;16.35;68.28
72650;SHT31;61467;50.674;4.618;2023-05-07T00:44:15;16.41;68.23
72650;SHT31;61467;50.674;4.618;2023-05-07T00:47:25;16.36;67.69
72650;SHT31;61467;50.674;4.618;2023-05-07T00:50:34;16.38;67.44
72650;SHT31;61467;50.674;4.618;2023-05-07T01:21:10;16.49;67.12
72650;SHT31;61467;50.674;4.618;2023-05-07T01:24:03;16.45;67.24
72650;SHT31;61467;50.674;4.618;2023-05-07T01:27:14;16.34;67.57
72650;SHT31;61467;50.674;4.618;2023-05-07T01:33:22;16.17;68.87
72650;SHT31;61467;50.674;4.618;2023-05-07T01:36:30;16.29;69.40
72650;SHT31;61467;50.674;4.618;2023-05-07T01:39:38;16.35;69.33
72650;SHT31;61467;50.674;4.618;2023-05-07T01:49:06;16.34;69.08
72650;SHT31;61467;50.674;4.618;2023-05-07T01:52:11;16.34;69.05
72650;SHT31;61467;50.674;4.618;2023-05-07T01:58:52;16.26;69.00
72650;SHT31;61467;50.674;4.618;2023-05-07T02:01:52;16.31;68.47
72650;SHT31;61467;50.674;4.618;2023-05-07T02:04:44;16.32;68.84
72650;SHT31;61467;50.674;4.618;2023-05-07T02:07:38;16.38;69.45
72650;SHT31;61467;50.674;4.618;2023-05-07T02:10:28;16.29;69.74
72650;SHT31;61467;50.674;4.618;2023-05-07T02:13:29;16.29;69.69
72650;SHT31;61467;50.674;4.618;2023-05-07T02:16:28;16.32;69.65
72650;SHT31;61467;50.674;4.618;2023-05-07T02:19:32;16.31;69.59
72650;SHT31;61467;50.674;4.618;2023-05-07T02:28:48;16.22;70.19
72650;SHT31;61467;50.674;4.618;2023-05-07T02:31:41;16.24;70.56
72650;SHT31;61467;50.674;4.618;2023-05-07T02:34:40;16.29;70.21
72650;SHT31;61467;50.674;4.618;2023-05-07T02:37:44;16.28;69.30
72650;SHT31;61467;50.674;4.618;2023-05-07T02:40:48;16.29;69.35
72650;SHT31;61467;50.674;4.618;2023-05-07T02:43:37;16.26;69.89
72650;SHT31;61467;50.674;4.618;2023-05-07T02:46:36;16.29;68.51
72650;SHT31;61467;50.674;4.618;2023-05-07T02:49:33;16.24;68.23
72650;SHT31;61467;50.674;4.618;2023-05-07T02:52:45;16.26;69.23
72650;SHT31;61467;50.674;4.618;2023-05-07T03:01:56;16.15;69.96
72650;SHT31;61467;50.674;4.618;2023-05-07T03:04:46;16.11;70.67
72650;SHT31;61467;50.674;4.618;2023-05-07T03:07:43;16.15;70.60
72650;SHT31;61467;50.674;4.618;2023-05-07T03:10:53;16.10;70.56
72650;SHT31;61467;50.674;4.618;2023-05-07T03:13:50;16.10;70.53
72650;SHT31;61467;50.674;4.618;2023-05-07T03:19:46;16.00;71.10
72650;SHT31;61467;50.674;4.618;2023-05-07T03:22:48;15.93;70.70
72650;SHT31;61467;50.674;4.618;2023-05-07T03:28:50;15.89;70.91
72650;SHT31;61467;50.674;4.618;2023-05-07T03:31:46;15.74;71.26
72650;SHT31;61467;50.674;4.618;2023-05-07T03:34:42;15.80;71.37
72650;SHT31;61467;50.674;4.618;2023-05-07T03:37:46;15.81;71.39
72650;SHT31;61467;50.674;4.618;2023-05-07T03:40:44;15.81;71.52
72650;SHT31;61467;50.674;4.618;2023-05-07T03:46:56;15.80;71.42
72650;SHT31;61467;50.674;4.618;2023-05-07T03:49:36;15.73;71.53
72650;SHT31;61467;50.674;4.618;2023-05-07T03:52:34;15.79;71.47
72650;SHT31;61467;50.674;4.618;2023-05-07T03:55:25;15.81;71.69
72650;SHT31;61467;50.674;4.618;2023-05-07T04:04:26;15.83;71.74
72650;SHT31;61467;50.674;4.618;2023-05-07T04:10:56;15.79;71.37
72650;SHT31;61467;50.674;4.618;2023-05-07T04:13:48;15.81;71.68
72650;SHT31;61467;50.674;4.618;2023-05-07T04:20:07;15.84;71.22
72650;SHT31;61467;50.674;4.618;2023-05-07T04:22:57;15.83;71.09
72650;SHT31;61467;50.674;4.618;2023-05-07T04:28:43;15.90;71.46
72650;SHT31;61467;50.674;4.618;2023-05-07T04:31:20;15.86;71.72
72650;SHT31;61467;50.674;4.618;2023-05-07T04:34:21;15.81;71.45
72650;SHT31;61467;50.674;4.618;2023-05-07T04:37:18;15.86;71.25
72650;SHT31;61467;50.674;4.618;2023-05-07T04:40:11;15.94;71.25
72650;SHT31;61467;50.674;4.618;2023-05-07T04:43:11;15.89;71.40
72650;SHT31;61467;50.674;4.618;2023-05-07T05:04:42;15.86;71.09
72650;SHT31;61467;50.674;4.618;2023-05-07T05:07:18;15.93;71.07
72650;SHT31;61467;50.674;4.618;2023-05-07T05:09:55;16.00;70.86
72650;SHT31;61467;50.674;4.618;2023-05-07T05:12:39;15.97;70.86
72650;SHT31;61467;50.674;4.618;2023-05-07T05:15:22;16.08;70.91
72650;SHT31;61467;50.674;4.618;2023-05-07T05:17:54;16.04;70.66
72650;SHT31;61467;50.674;4.618;2023-05-07T05:20:44;16.08;70.68
72650;SHT31;61467;50.674;4.618;2023-05-07T05:23:24;16.07;71.05
72650;SHT31;61467;50.674;4.618;2023-05-07T05:26:04;16.22;70.56
72650;SHT31;61467;50.674;4.618;2023-05-07T05:28:51;16.17;70.96
72650;SHT31;61467;50.674;4.618;2023-05-07T05:34:23;16.22;70.24
72650;SHT31;61467;50.674;4.618;2023-05-07T05:37:03;16.12;70.86
72650;SHT31;61467;50.674;4.618;2023-05-07T05:39:41;16.22;70.42
72650;SHT31;61467;50.674;4.618;2023-05-07T05:42:16;16.31;69.76
72650;SHT31;61467;50.674;4.618;2023-05-07T05:44:51;16.26;70.54
72650;SHT31;61467;50.674;4.618;2023-05-07T05:47:22;16.34;70.15
72650;SHT31;61467;50.674;4.618;2023-05-07T05:50:00;16.40;69.91
72650;SHT31;61467;50.674;4.618;2023-05-07T05:52:51;16.41;69.79
72650;SHT31;61467;50.674;4.618;2023-05-07T05:55:39;16.42;69.88
72650;SHT31;61467;50.674;4.618;2023-05-07T05:58:14;16.48;70.33
72650;SHT31;61467;50.674;4.618;2023-05-07T06:00:50;16.48;70.01
72650;SHT31;61467;50.674;4.618;2023-05-07T06:03:26;16.48;70.43
72650;SHT31;61467;50.674;4.618;2023-05-07T06:05:59;16.51;70.43
72650;SHT31;61467;50.674;4.618;2023-05-07T06:08:58;16.52;70.57
72650;SHT31;61467;50.674;4.618;2023-05-07T06:11:42;16.58;70.22
72650;SHT31;61467;50.674;4.618;2023-05-07T06:14:21;16.63;70.33
72650;SHT31;61467;50.674;4.618;2023-05-07T06:17:01;16.56;70.66
72650;SHT31;61467;50.674;4.618;2023-05-07T06:19:39;16.51;70.87
72650;SHT31;61467;50.674;4.618;2023-05-07T06:22:21;16.34;71.13
72650;SHT31;61467;50.674;4.618;2023-05-07T06:27:44;16.35;71.22
72650;SHT31;61467;50.674;4.618;2023-05-07T06:30:20;16.20;71.65
72650;SHT31;61467;50.674;4.618;2023-05-07T06:32:57;16.20;71.60
72650;SHT31;61467;50.674;4.618;2023-05-07T06:35:38;16.31;71.18
72650;SHT31;61467;50.674;4.618;2023-05-07T06:38:20;15.97;72.62
72650;SHT31;61467;50.674;4.618;2023-05-07T06:41:06;15.79;73.05
72650;SHT31;61467;50.674;4.618;2023-05-07T06:43:55;15.97;72.62
72650;SHT31;61467;50.674;4.618;2023-05-07T06:46:37;16.01;72.44
72650;SHT31;61467;50.674;4.618;2023-05-07T06:49:17;16.29;71.76
72650;SHT31;61467;50.674;4.618;2023-05-07T06:52:00;16.07;72.25
72650;SHT31;61467;50.674;4.618;2023-05-07T06:54:38;15.91;73.37
72650;SHT31;61467;50.674;4.618;2023-05-07T06:57:25;16.03;73.76
72650;SHT31;61467;50.674;4.618;2023-05-07T07:00:01;16.11;73.56
72650;SHT31;61467;50.674;4.618;2023-05-07T07:02:51;15.96;74.59
72650;SHT31;61467;50.674;4.618;2023-05-07T07:05:35;16.12;74.11
72650;SHT31;61467;50.674;4.618;2023-05-07T07:08:16;16.01;74.42
72650;SHT31;61467;50.674;4.618;2023-05-07T07:10:51;16.00;74.81
72650;SHT31;61467;50.674;4.618;2023-05-07T07:13:27;15.98;75.01
72650;SHT31;61467;50.674;4.618;2023-05-07T07:15:55;16.03;74.94
72650;SHT31;61467;50.674;4.618;2023-05-07T07:18:28;16.11;74.95
72650;SHT31;61467;50.674;4.618;2023-05-07T07:20:56;16.17;74.08
72650;SHT31;61467;50.674;4.618;2023-05-07T07:23:27;16.26;74.59
72650;SHT31;61467;50.674;4.618;2023-05-07T07:26:02;16.14;75.20
72650;SHT31;61467;50.674;4.618;2023-05-07T07:28:33;16.38;74.67
72650;SHT31;61467;50.674;4.618;2023-05-07T07:31:05;16.42;75.25
72650;SHT31;61467;50.674;4.618;2023-05-07T07:33:36;16.63;74.79
72650;SHT31;61467;50.674;4.618;2023-05-07T07:36:07;16.38;75.31
72650;SHT31;61467;50.674;4.618;2023-05-07T07:38:36;16.53;75.30
72650;SHT31;61467;50.674;4.618;2023-05-07T07:41:03;16.32;75.69
72650;SHT31;61467;50.674;4.618;2023-05-07T07:43:36;16.14;76.52
72650;SHT31;61467;50.674;4.618;2023-05-07T07:46:05;15.94;77.12
72650;SHT31;61467;50.674;4.618;2023-05-07T07:48:36;15.94;77.52
72650;SHT31;61467;50.674;4.618;2023-05-07T07:51:06;16.14;77.35
72650;SHT31;61467;50.674;4.618;2023-05-07T07:53:35;16.11;77.43
72650;SHT31;61467;50.674;4.618;2023-05-07T07:56:06;16.03;78.09
72650;SHT31;61467;50.674;4.618;2023-05-07T07:58:39;16.24;77.42
72650;SHT31;61467;50.674;4.618;2023-05-07T08:01:14;16.59;76.46
72650;SHT31;61467;50.674;4.618;2023-05-07T08:03:42;16.59;76.99
72650;SHT31;61467;50.674;4.618;2023-05-07T08:06:10;16.79;76.76
72650;SHT31;61467;50.674;4.618;2023-05-07T08:08:40;16.73;76.84
72650;SHT31;61467;50.674;4.618;2023-05-07T08:11:09;16.92;76.33
72650;SHT31;61467;50.674;4.618;2023-05-07T08:13:42;16.94;76.03
72650;SHT31;61467;50.674;4.618;2023-05-07T08:16:13;17.04;76.03
72650;SHT31;61467;50.674;4.618;2023-05-07T08:18:40;16.82;77.20
72650;SHT31;61467;50.674;4.618;2023-05-07T08:21:07;16.97;76.82
72650;SHT31;61467;50.674;4.618;2023-05-07T08:23:34;17.07;76.49
72650;SHT31;61467;50.674;4.618;2023-05-07T08:26:01;17.12;76.54
72650;SHT31;61467;50.674;4.618;2023-05-07T08:28:35;17.16;75.76
72650;SHT31;61467;50.674;4.618;2023-05-07T08:31:08;17.27;76.25
72650;SHT31;61467;50.674;4.618;2023-05-07T08:33:38;17.14;77.03
72650;SHT31;61467;50.674;4.618;2023-05-07T08:36:08;17.14;76.22
72650;SHT31;61467;50.674;4.618;2023-05-07T08:38:36;17.37;76.36
72650;SHT31;61467;50.674;4.618;2023-05-07T08:41:06;17.30;76.66
72650;SHT31;61467;50.674;4.618;2023-05-07T08:43:36;17.50;76.05
72650;SHT31;61467;50.674;4.618;2023-05-07T08:46:09;17.43;75.61
72650;SHT31;61467;50.674;4.618;2023-05-07T08:48:42;17.43;75.82
72650;SHT31;61467;50.674;4.618;2023-05-07T08:51:21;17.45;76.05
72650;SHT31;61467;50.674;4.618;2023-05-07T08:53:51;17.31;75.93
72650;SHT31;61467;50.674;4.618;2023-05-07T08:56:24;17.41;76.00
72650;SHT31;61467;50.674;4.618;2023-05-07T08:58:57;17.26;77.28
72650;SHT31;61467;50.674;4.618;2023-05-07T09:01:30;17.17;76.92
72650;SHT31;61467;50.674;4.618;2023-05-07T09:04:05;17.13;76.71
72650;SHT31;61467;50.674;4.618;2023-05-07T09:06:36;17.34;76.68
72650;SHT31;61467;50.674;4.618;2023-05-07T09:09:05;17.12;76.81
72650;SHT31;61467;50.674;4.618;2023-05-07T09:11:36;17.21;76.93
72650;SHT31;61467;50.674;4.618;2023-05-07T09:14:06;17.24;76.93
72650;SHT31;61467;50.674;4.618;2023-05-07T09:16:36;17.35;77.05
72650;SHT31;61467;50.674;4.618;2023-05-07T09:19:06;17.33;76.95
72650;SHT31;61467;50.674;4.618;2023-05-07T09:21:35;17.34;76.98
72650;SHT31;61467;50.674;4.618;2023-05-07T09:24:05;17.35;77.03
72650;SHT31;61467;50.674;4.618;2023-05-07T09:26:35;17.43;76.77
72650;SHT31;61467;50.674;4.618;2023-05-07T09:29:06;17.43;76.35
72650;SHT31;61467;50.674;4.618;2023-05-07T09:31:38;17.43;76.60
72650;SHT31;61467;50.674;4.618;2023-05-07T09:34:14;17.37;76.79
72650;SHT31;61467;50.674;4.618;2023-05-07T09:36:48;17.52;76.89
72650;SHT31;61467;50.674;4.618;2023-05-07T09:39:21;17.35;76.88
72650;SHT31;61467;50.674;4.618;2023-05-07T09:41:50;17.55;76.65
72650;SHT31;61467;50.674;4.618;2023-05-07T09:44:21;17.48;77.20
72650;SHT31;61467;50.674;4.618;2023-05-07T09:46:55;17.72;77.32
72650;SHT31;61467;50.674;4.618;2023-05-07T09:49:24;17.72;76.90
72650;SHT31;61467;50.674;4.618;2023-05-07T09:51:54;17.86;76.89
72650;SHT31;61467;50.674;4.618;2023-05-07T09:54:24;17.61;77.68
72650;SHT31;61467;50.674;4.618;2023-05-07T09:56:52;17.65;77.09
72650;SHT31;61467;50.674;4.618;2023-05-07T09:59:20;17.62;77.55
72650;SHT31;61467;50.674;4.618;2023-05-07T10:01:53;17.68;78.04
72650;SHT31;61467;50.674;4.618;2023-05-07T10:04:26;17.70;77.16
72650;SHT31;61467;50.674;4.618;2023-05-07T10:06:57;17.72;77.47
72650;SHT31;61467;50.674;4.618;2023-05-07T10:09:26;17.79;77.62
72650;SHT31;61467;50.674;4.618;2023-05-07T10:11:55;17.65;77.81
72650;SHT31;61467;50.674;4.618;2023-05-07T10:14:26;17.77;77.05
72650;SHT31;61467;50.674;4.618;2023-05-07T10:17:04;17.75;76.82
72650;SHT31;61467;50.674;4.618;2023-05-07T10:19:34;17.81;76.44
72650;SHT31;61467;50.674;4.618;2023-05-07T10:22:05;17.79;76.78
72650;SHT31;61467;50.674;4.618;2023-05-07T10:24:42;17.92;77.00
72650;SHT31;61467;50.674;4.618;2023-05-07T10:27:17;17.71;77.88
72650;SHT31;61467;50.674;4.618;2023-05-07T10:30:00;17.79;77.90
72650;SHT31;61467;50.674;4.618;2023-05-07T10:32:40;17.72;77.76
72650;SHT31;61467;50.674;4.618;2023-05-07T10:35:14;17.83;77.12
72650;SHT31;61467;50.674;4.618;2023-05-07T10:37:46;17.88;77.07
72650;SHT31;61467;50.674;4.618;2023-05-07T10:40:17;17.96;77.49
72650;SHT31;61467;50.674;4.618;2023-05-07T10:42:58;18.03;77.36
72650;SHT31;61467;50.674;4.618;2023-05-07T10:45:30;18.08;77.48
72650;SHT31;61467;50.674;4.618;2023-05-07T10:48:11;18.12;76.65
72650;SHT31;61467;50.674;4.618;2023-05-07T10:50:44;18.29;76.72
72650;SHT31;61467;50.674;4.618;2023-05-07T10:53:23;18.33;76.22
72650;SHT31;61467;50.674;4.618;2023-05-07T10:56:26;18.32;76.51
72650;SHT31;61467;50.674;4.618;2023-05-07T10:59:33;18.23;76.60
72650;SHT31;61467;50.674;4.618;2023-05-07T11:02:08;18.16;77.19
72650;SHT31;61467;50.674;4.618;2023-05-07T11:04:42;18.17;76.96
72650;SHT31;61467;50.674;4.618;2023-05-07T11:07:36;18.20;75.36
72650;SHT31;61467;50.674;4.618;2023-05-07T11:10:06;18.57;73.38
72650;SHT31;61467;50.674;4.618;2023-05-07T11:12:55;18.73;73.61
72650;SHT31;61467;50.674;4.618;2023-05-07T11:15:45;18.81;74.43
72650;SHT31;61467;50.674;4.618;2023-05-07T11:18:21;19.02;73.03
72650;SHT31;61467;50.674;4.618;2023-05-07T11:20:58;19.22;71.85
72650;SHT31;61467;50.674;4.618;2023-05-07T11:26:49;19.19;72.20
72650;SHT31;61467;50.674;4.618;2023-05-07T11:29:22;19.22;72.50
72650;SHT31;61467;50.674;4.618;2023-05-07T11:31:52;19.16;72.85
72650;SHT31;61467;50.674;4.618;2023-05-07T11:34:26;19.29;72.39
72650;SHT31;61467;50.674;4.618;2023-05-07T11:36:59;19.33;72.36
72650;SHT31;61467;50.674;4.618;2023-05-07T11:39:35;19.39;71.56
72650;SHT31;61467;50.674;4.618;2023-05-07T11:42:04;19.51;71.26
72650;SHT31;61467;50.674;4.618;2023-05-07T11:44:42;19.52;71.32
72650;SHT31;61467;50.674;4.618;2023-05-07T11:47:20;19.52;71.00
72650;SHT31;61467;50.674;4.618;2023-05-07T11:49:53;19.43;70.85
72650;SHT31;61467;50.674;4.618;2023-05-07T11:52:31;19.60;70.75
72650;SHT31;61467;50.674;4.618;2023-05-07T11:55:03;19.62;71.07
72650;SHT31;61467;50.674;4.618;2023-05-07T11:57:35;19.79;71.54
72650;SHT31;61467;50.674;4.618;2023-05-07T12:00:06;19.70;71.36
72650;SHT31;61467;50.674;4.618;2023-05-07T12:02:36;19.65;71.33
72650;SHT31;61467;50.674;4.618;2023-05-07T12:05:06;19.70;71.30
72650;SHT31;61467;50.674;4.618;2023-05-07T12:07:36;19.77;70.48
72650;SHT31;61467;50.674;4.618;2023-05-07T12:10:06;19.65;70.84
72650;SHT31;61467;50.674;4.618;2023-05-07T12:12:51;19.63;70.67
72650;SHT31;61467;50.674;4.618;2023-05-07T12:15:23;19.62;70.54
72650;SHT31;61467;50.674;4.618;2023-05-07T12:17:54;19.70;70.29
72650;SHT31;61467;50.674;4.618;2023-05-07T12:20:25;19.87;70.00
72650;SHT31;61467;50.674;4.618;2023-05-07T12:23:04;19.84;69.68
72650;SHT31;61467;50.674;4.618;2023-05-07T12:25:35;19.96;69.04
72650;SHT31;61467;50.674;4.618;2023-05-07T12:28:07;19.87;67.73
72650;SHT31;61467;50.674;4.618;2023-05-07T12:30:42;19.80;67.85
72650;SHT31;61467;50.674;4.618;2023-05-07T12:33:14;19.80;67.66
72650;SHT31;61467;50.674;4.618;2023-05-07T12:35:48;19.93;67.37
72650;SHT31;61467;50.674;4.618;2023-05-07T12:38:22;20.01;67.07
72650;SHT31;61467;50.674;4.618;2023-05-07T12:40:55;20.21;66.93
72650;SHT31;61467;50.674;4.618;2023-05-07T12:43:26;20.17;66.51
72650;SHT31;61467;50.674;4.618;2023-05-07T12:45:58;20.16;67.07
72650;SHT31;61467;50.674;4.618;2023-05-07T12:48:36;20.31;66.25
72650;SHT31;61467;50.674;4.618;2023-05-07T12:51:05;20.31;66.61
72650;SHT31;61467;50.674;4.618;2023-05-07T12:53:40;19.96;67.85
72650;SHT31;61467;50.674;4.618;2023-05-07T12:56:12;20.06;67.72
72650;SHT31;61467;50.674;4.618;2023-05-07T12:58:50;20.20;67.66
72650;SHT31;61467;50.674;4.618;2023-05-07T13:01:22;20.24;68.38
72650;SHT31;61467;50.674;4.618;2023-05-07T13:04:03;20.10;68.38
72650;SHT31;61467;50.674;4.618;2023-05-07T13:06:35;20.17;68.23
72650;SHT31;61467;50.674;4.618;2023-05-07T13:09:05;20.28;68.04
72650;SHT31;61467;50.674;4.618;2023-05-07T13:11:35;20.24;68.28
72650;SHT31;61467;50.674;4.618;2023-05-07T13:14:06;20.27;68.29
72650;SHT31;61467;50.674;4.618;2023-05-07T13:16:36;20.34;69.00
72650;SHT31;61467;50.674;4.618;2023-05-07T13:19:06;20.41;68.04
72650;SHT31;61467;50.674;4.618;2023-05-07T13:21:37;20.37;68.47
72650;SHT31;61467;50.674;4.618;2023-05-07T13:24:13;20.01;69.52
72650;SHT31;61467;50.674;4.618;2023-05-07T13:26:48;20.22;69.22
72650;SHT31;61467;50.674;4.618;2023-05-07T13:29:16;20.22;69.02
72650;SHT31;61467;50.674;4.618;2023-05-07T13:31:45;20.40;69.06
72650;SHT31;61467;50.674;4.618;2023-05-07T13:34:18;20.51;68.48
72650;SHT31;61467;50.674;4.618;2023-05-07T13:36:47;20.62;68.34
72650;SHT31;61467;50.674;4.618;2023-05-07T13:39:22;20.41;68.83
72650;SHT31;61467;50.674;4.618;2023-05-07T13:41:50;20.48;68.62
72650;SHT31;61467;50.674;4.618;2023-05-07T13:44:19;20.44;68.89
72650;SHT31;61467;50.674;4.618;2023-05-07T13:46:49;20.41;69.64
72650;SHT31;61467;50.674;4.618;2023-05-07T13:49:21;20.47;69.79
72650;SHT31;61467;50.674;4.618;2023-05-07T13:51:49;20.49;68.99
72650;SHT31;61467;50.674;4.618;2023-05-07T13:54:19;20.31;69.56
72650;SHT31;61467;50.674;4.618;2023-05-07T13:57:02;20.41;69.17
72650;SHT31;61467;50.674;4.618;2023-05-07T13:59:30;20.22;69.45
72650;SHT31;61467;50.674;4.618;2023-05-07T14:01:57;20.22;69.65
72650;SHT31;61467;50.674;4.618;2023-05-07T14:04:26;20.17;70.03
72650;SHT31;61467;50.674;4.618;2023-05-07T14:07:05;20.16;69.91
72650;SHT31;61467;50.674;4.618;2023-05-07T14:09:38;20.25;69.99
72650;SHT31;61467;50.674;4.618;2023-05-07T14:12:16;20.04;70.82
72650;SHT31;61467;50.674;4.618;2023-05-07T14:14:49;19.80;71.55
72650;SHT31;61467;50.674;4.618;2023-05-07T14:17:19;19.84;71.22
72650;SHT31;61467;50.674;4.618;2023-05-07T14:19:50;19.96;70.75
72650;SHT31;61467;50.674;4.618;2023-05-07T14:22:24;20.11;70.52
72650;SHT31;61467;50.674;4.618;2023-05-07T14:24:57;20.18;69.90
72650;SHT31;61467;50.674;4.618;2023-05-07T14:27:33;19.70;71.70
72650;SHT31;61467;50.674;4.618;2023-05-07T14:30:05;19.86;71.86
72650;SHT31;61467;50.674;4.618;2023-05-07T14:32:36;19.73;72.74
72650;SHT31;61467;50.674;4.618;2023-05-07T14:35:06;19.07;73.77
72650;SHT31;61467;50.674;4.618;2023-05-07T14:37:35;18.63;73.70
72650;SHT31;61467;50.674;4.618;2023-05-07T14:40:10;18.56;74.65
72650;SHT31;61467;50.674;4.618;2023-05-07T14:42:46;18.83;74.20
72650;SHT31;61467;50.674;4.618;2023-05-07T14:45:20;18.95;73.98
72650;SHT31;61467;50.674;4.618;2023-05-07T14:47:50;18.87;73.74
72650;SHT31;61467;50.674;4.618;2023-05-07T14:50:21;18.83;73.90
72650;SHT31;61467;50.674;4.618;2023-05-07T14:52:52;19.05;73.55
72650;SHT31;61467;50.674;4.618;2023-05-07T14:55:24;18.81;73.24
72650;SHT31;61467;50.674;4.618;2023-05-07T14:57:58;18.67;74.40
72650;SHT31;61467;50.674;4.618;2023-05-07T15:00:27;18.88;73.44
72650;SHT31;61467;50.674;4.618;2023-05-07T15:03:05;18.77;73.38
72650;SHT31;61467;50.674;4.618;2023-05-07T15:05:34;18.78;73.29
72650;SHT31;61467;50.674;4.618;2023-05-07T15:08:06;18.87;74.14
72650;SHT31;61467;50.674;4.618;2023-05-07T15:10:36;18.75;73.67
72650;SHT31;61467;50.674;4.618;2023-05-07T15:13:14;18.81;74.01
72650;SHT31;61467;50.674;4.618;2023-05-07T15:15:49;18.46;73.65
72650;SHT31;61467;50.674;4.618;2023-05-07T15:18:21;18.57;74.53
72650;SHT31;61467;50.674;4.618;2023-05-07T15:20:57;18.67;74.19
72650;SHT31;61467;50.674;4.618;2023-05-07T15:23:25;18.67;74.00
72650;SHT31;61467;50.674;4.618;2023-05-07T15:25:59;18.78;72.97
72650;SHT31;61467;50.674;4.618;2023-05-07T15:28:32;18.59;73.89
72650;SHT31;61467;50.674;4.618;2023-05-07T15:31:02;18.84;74.04
72650;SHT31;61467;50.674;4.618;2023-05-07T15:33:35;19.00;74.26
72650;SHT31;61467;50.674;4.618;2023-05-07T15:36:05;18.90;73.79
72650;SHT31;61467;50.674;4.618;2023-05-07T15:38:33;18.70;73.58
72650;SHT31;61467;50.674;4.618;2023-05-07T15:41:02;18.44;73.94
72650;SHT31;61467;50.674;4.618;2023-05-07T15:43:43;18.44;74.47
72650;SHT31;61467;50.674;4.618;2023-05-07T15:46:19;18.81;73.98
72650;SHT31;61467;50.674;4.618;2023-05-07T15:48:51;18.81;74.60
72650;SHT31;61467;50.674;4.618;2023-05-07T15:51:21;18.71;75.02
72650;SHT31;61467;50.674;4.618;2023-05-07T15:53:50;18.92;74.37
72650;SHT31;61467;50.674;4.618;2023-05-07T15:56:19;18.59;75.42
72650;SHT31;61467;50.674;4.618;2023-05-07T15:58:55;18.88;75.35
72650;SHT31;61467;50.674;4.618;2023-05-07T16:01:40;18.75;75.30
72650;SHT31;61467;50.674;4.618;2023-05-07T16:04:24;18.75;75.41
72650;SHT31;61467;50.674;4.618;2023-05-07T16:06:53;18.70;75.65
72650;SHT31;61467;50.674;4.618;2023-05-07T16:09:21;18.67;74.92
72650;SHT31;61467;50.674;4.618;2023-05-07T16:11:57;18.77;74.50
72650;SHT31;61467;50.674;4.618;2023-05-07T16:17:53;18.87;73.73
72650;SHT31;61467;50.674;4.618;2023-05-07T16:20:32;18.92;73.73
72650;SHT31;61467;50.674;4.618;2023-05-07T16:23:31;18.91;73.48
72650;SHT31;61467;50.674;4.618;2023-05-07T16:26:07;19.00;73.63
72650;SHT31;61467;50.674;4.618;2023-05-07T16:28:50;19.07;73.50
72650;SHT31;61467;50.674;4.618;2023-05-07T16:31:43;19.07;73.16
72650;SHT31;61467;50.674;4.618;2023-05-07T16:34:35;18.88;73.33
72650;SHT31;61467;50.674;4.618;2023-05-07T16:37:26;19.11;72.62
72650;SHT31;61467;50.674;4.618;2023-05-07T16:40:19;19.32;72.79
72650;SHT31;61467;50.674;4.618;2023-05-07T16:42:51;19.35;72.87
72650;SHT31;61467;50.674;4.618;2023-05-07T16:45:37;19.35;72.85
72650;SHT31;61467;50.674;4.618;2023-05-07T16:48:17;19.23;71.96
72650;SHT31;61467;50.674;4.618;2023-05-07T16:51:01;19.58;72.07
72650;SHT31;61467;50.674;4.618;2023-05-07T16:53:39;19.74;71.87
72650;SHT31;61467;50.674;4.618;2023-05-07T16:56:21;19.84;70.38
72650;SHT31;61467;50.674;4.618;2023-05-07T16:59:02;19.84;68.08
72650;SHT31;61467;50.674;4.618;2023-05-07T17:01:35;20.09;69.01
72650;SHT31;61467;50.674;4.618;2023-05-07T17:04:25;20.20;67.60
72650;SHT31;61467;50.674;4.618;2023-05-07T17:07:10;19.49;68.67
72650;SHT31;61467;50.674;4.618;2023-05-07T17:09:55;19.91;69.83
72650;SHT31;61467;50.674;4.618;2023-05-07T17:12:36;19.73;68.26
72650;SHT31;61467;50.674;4.618;2023-05-07T17:15:24;19.60;69.04
72650;SHT31;61467;50.674;4.618;2023-05-07T17:18:07;19.79;68.95
72650;SHT31;61467;50.674;4.618;2023-05-07T17:21:00;19.67;68.67
72650;SHT31;61467;50.674;4.618;2023-05-07T17:23:51;19.18;69.30
72650;SHT31;61467;50.674;4.618;2023-05-07T17:29:56;19.15;70.58
72650;SHT31;61467;50.674;4.618;2023-05-07T17:32:36;19.25;70.24
72650;SHT31;61467;50.674;4.618;2023-05-07T17:35:09;19.22;70.59
72650;SHT31;61467;50.674;4.618;2023-05-07T17:37:40;19.33;70.64
72650;SHT31;61467;50.674;4.618;2023-05-07T17:40:21;19.48;70.01
72650;SHT31;61467;50.674;4.618;2023-05-07T17:42:59;19.55;69.35
72650;SHT31;61467;50.674;4.618;2023-05-07T17:45:40;19.66;68.84
72650;SHT31;61467;50.674;4.618;2023-05-07T17:48:26;19.77;69.20
72650;SHT31;61467;50.674;4.618;2023-05-07T17:51:21;19.81;69.38
72650;SHT31;61467;50.674;4.618;2023-05-07T18:00:26;20.00;68.24
72650;SHT31;61467;50.674;4.618;2023-05-07T18:03:13;20.10;68.30
72650;SHT31;61467;50.674;4.618;2023-05-07T18:05:50;20.11;68.07
72650;SHT31;61467;50.674;4.618;2023-05-07T18:08:23;20.22;67.54
72650;SHT31;61467;50.674;4.618;2023-05-07T18:11:23;20.20;67.43
72650;SHT31;61467;50.674;4.618;2023-05-07T18:14:21;20.17;67.41
72650;SHT31;61467;50.674;4.618;2023-05-07T18:17:27;20.20;67.41
72650;SHT31;61467;50.674;4.618;2023-05-07T18:20:08;20.27;67.13
72650;SHT31;61467;50.674;4.618;2023-05-07T18:25:44;20.17;67.31
72650;SHT31;61467;50.674;4.618;2023-05-07T18:28:25;20.20;67.13
72650;SHT31;61467;50.674;4.618;2023-05-07T18:31:12;20.11;66.85
72650;SHT31;61467;50.674;4.618;2023-05-07T18:34:10;20.09;66.74
72650;SHT31;61467;50.674;4.618;2023-05-07T18:39:57;20.00;67.50
72650;SHT31;61467;50.674;4.618;2023-05-07T18:42:33;20.01;67.63
72650;SHT31;61467;50.674;4.618;2023-05-07T18:48:16;19.89;67.48
72650;SHT31;61467;50.674;4.618;2023-05-07T18:50:56;19.83;67.88
72650;SHT31;61467;50.674;4.618;2023-05-07T18:53:49;19.89;68.09
72650;SHT31;61467;50.674;4.618;2023-05-07T18:56:31;19.91;68.20
72650;SHT31;61467;50.674;4.618;2023-05-07T18:59:14;19.86;68.38
72650;SHT31;61467;50.674;4.618;2023-05-07T19:01:55;19.89;68.77
72650;SHT31;61467;50.674;4.618;2023-05-07T19:04:32;19.91;68.74
72650;SHT31;61467;50.674;4.618;2023-05-07T19:07:25;19.76;69.34